This is the latest recevied weather packets stored in our database for station/object EA5FOG-11. If no packets are shown the sender has not sent any weather packets the latest 1 day(s).
| Time | Temp. | Humidity | Pressure | Rain* | Wind** | Luminosity | Snow |
|---|---|---|---|---|---|---|---|
| 1778093806 | 18.33° C | 44% | 952.7 hPa | - | - | - | - |
| 1778092905 | 18.33° C | 44% | 952.5 hPa | - | - | - | - |
| 1778092004 | 18.89° C | 43% | 952.4 hPa | - | - | - | - |
| 1778091103 | 18.89° C | 43% | 952.2 hPa | - | - | - | - |
| 1778090202 | 19.44° C | 43% | 952 hPa | - | - | - | - |
| 1778089302 | 20° C | 43% | 952 hPa | - | - | - | - |
| 1778088401 | 20.56° C | 42% | 951.7 hPa | - | - | - | - |
| 1778087500 | 21.11° C | 41% | 951.8 hPa | - | - | - | - |
| 1778086599 | 25.56° C | 37% | 951.7 hPa | - | - | - | - |
| 1778085699 | 28.33° C | 34% | 951.5 hPa | - | - | - | - |
| 1778084798 | 25.56° C | 35% | 951.4 hPa | - | - | - | - |
| 1778083897 | 23.89° C | 36% | 951.4 hPa | - | - | - | - |
| 1778082996 | 27.78° C | 32% | 951.1 hPa | - | - | - | - |
| 1778082095 | 28.33° C | 31% | 951.2 hPa | - | - | - | - |
| 1778081195 | 27.78° C | 30% | 951.2 hPa | - | - | - | - |
| 1778080294 | 28.33° C | 28% | 951.2 hPa | - | - | - | - |
| 1778079393 | 28.89° C | 27% | 951.3 hPa | - | - | - | - |
| 1778078492 | 31.67° C | 25% | 951.4 hPa | - | - | - | - |
| 1778077591 | 34.44° C | 24% | 951.6 hPa | - | - | - | - |
| 1778076690 | 33.33° C | 24% | 951.7 hPa | - | - | - | - |
| 1778075790 | 31.67° C | 25% | 951.7 hPa | - | - | - | - |
| 1778074888 | 34.44° C | 24% | 951.7 hPa | - | - | - | - |
| 1778073106 | 32.22° C | 24% | 951.6 hPa | - | - | - | - |
| 1778072206 | 30° C | 26% | 951.7 hPa | - | - | - | - |
| 1778071305 | 28.33° C | 26% | 951.9 hPa | - | - | - | - |
* Rain since midnight (hover to see other rain measurements)
** Current wind speed in m/s (hover to see current wind gust speed)